sensor_id;sensor_type;location;lat;lon;timestamp;pressure;altitude;pressure_sealevel;temperature;humidity
59337;BME280;45115;52.002;4.686;2023-05-18T00:43:19;103004.47;;;7.40;74.52
59337;BME280;45115;52.002;4.686;2023-05-18T00:45:46;103001.94;;;7.35;74.81
59337;BME280;45115;52.002;4.686;2023-05-18T00:48:13;103004.41;;;7.41;74.42
59337;BME280;45115;52.002;4.686;2023-05-18T00:50:39;103007.44;;;7.54;73.24
59337;BME280;45115;52.002;4.686;2023-05-18T00:53:15;103011.19;;;7.51;73.42
59337;BME280;45115;52.002;4.686;2023-05-18T00:55:42;103003.50;;;7.41;73.71
59337;BME280;45115;52.002;4.686;2023-05-18T00:58:09;102998.56;;;7.30;74.03
59337;BME280;45115;52.002;4.686;2023-05-18T01:00:38;103001.13;;;7.33;73.69
59337;BME280;45115;52.002;4.686;2023-05-18T01:03:04;103001.22;;;7.32;74.47
59337;BME280;45115;52.002;4.686;2023-05-18T01:05:34;103004.66;;;7.35;73.62
59337;BME280;45115;52.002;4.686;2023-05-18T01:08:01;103004.28;;;7.24;74.11
59337;BME280;45115;52.002;4.686;2023-05-18T01:10:32;103007.97;;;7.23;73.85
59337;BME280;45115;52.002;4.686;2023-05-18T01:13:02;103003.53;;;7.21;74.27
59337;BME280;45115;52.002;4.686;2023-05-18T01:15:32;103009.69;;;7.26;73.51
59337;BME280;45115;52.002;4.686;2023-05-18T01:18:08;103011.59;;;7.24;73.88
59337;BME280;45115;52.002;4.686;2023-05-18T01:20:43;103001.78;;;7.20;73.76
59337;BME280;45115;52.002;4.686;2023-05-18T01:23:56;103013.56;;;7.20;73.70
59337;BME280;45115;52.002;4.686;2023-05-18T01:26:30;103008.97;;;7.21;73.51
59337;BME280;45115;52.002;4.686;2023-05-18T01:29:04;103010.19;;;7.15;73.20
59337;BME280;45115;52.002;4.686;2023-05-18T01:31:31;103020.41;;;7.10;73.65
59337;BME280;45115;52.002;4.686;2023-05-18T01:34:01;103007.06;;;7.04;74.12
59337;BME280;45115;52.002;4.686;2023-05-18T01:36:28;103012.56;;;7.03;74.52
59337;BME280;45115;52.002;4.686;2023-05-18T01:38:56;103010.84;;;7.00;74.24
59337;BME280;45115;52.002;4.686;2023-05-18T01:41:27;103008.94;;;7.02;74.18
59337;BME280;45115;52.002;4.686;2023-05-18T01:43:59;103014.69;;;6.96;75.00
59337;BME280;45115;52.002;4.686;2023-05-18T01:46:50;103008.63;;;7.10;74.34
59337;BME280;45115;52.002;4.686;2023-05-18T01:49:23;103017.06;;;7.04;74.38
59337;BME280;45115;52.002;4.686;2023-05-18T01:51:52;103016.19;;;7.03;74.62
59337;BME280;45115;52.002;4.686;2023-05-18T01:54:21;103009.84;;;7.03;74.69
59337;BME280;45115;52.002;4.686;2023-05-18T01:56:51;103004.19;;;7.07;74.61
59337;BME280;45115;52.002;4.686;2023-05-18T01:59:22;103009.28;;;7.15;74.75
59337;BME280;45115;52.002;4.686;2023-05-18T02:01:49;103015.34;;;7.21;74.32
59337;BME280;45115;52.002;4.686;2023-05-18T02:04:16;103009.72;;;7.24;73.58
59337;BME280;45115;52.002;4.686;2023-05-18T02:06:43;103014.44;;;7.21;73.97
59337;BME280;45115;52.002;4.686;2023-05-18T02:09:09;103013.56;;;7.20;74.32
59337;BME280;45115;52.002;4.686;2023-05-18T02:11:36;103012.91;;;7.15;74.66
59337;BME280;45115;52.002;4.686;2023-05-18T02:14:03;103012.34;;;7.07;74.93
59337;BME280;45115;52.002;4.686;2023-05-18T02:16:31;103011.25;;;7.11;74.27
59337;BME280;45115;52.002;4.686;2023-05-18T02:18:58;103006.97;;;7.06;74.62
59337;BME280;45115;52.002;4.686;2023-05-18T02:21:25;103014.69;;;6.96;75.13
59337;BME280;45115;52.002;4.686;2023-05-18T02:23:52;103005.88;;;7.10;74.40
59337;BME280;45115;52.002;4.686;2023-05-18T02:26:18;103018.53;;;7.11;74.30
59337;BME280;45115;52.002;4.686;2023-05-18T02:28:51;103010.09;;;6.97;74.57
59337;BME280;45115;52.002;4.686;2023-05-18T02:31:17;103006.81;;;7.09;75.02
59337;BME280;45115;52.002;4.686;2023-05-18T02:33:45;103010.84;;;7.20;74.38
59337;BME280;45115;52.002;4.686;2023-05-18T02:36:12;103009.81;;;7.23;74.30
59337;BME280;45115;52.002;4.686;2023-05-18T02:38:42;103009.94;;;7.20;74.57
59337;BME280;45115;52.002;4.686;2023-05-18T02:41:10;103009.50;;;7.10;75.00
59337;BME280;45115;52.002;4.686;2023-05-18T02:43:37;103004.06;;;7.10;74.69
59337;BME280;45115;52.002;4.686;2023-05-18T02:46:03;103012.97;;;7.14;74.54
59337;BME280;45115;52.002;4.686;2023-05-18T02:48:31;103002.34;;;7.08;75.18
59337;BME280;45115;52.002;4.686;2023-05-18T02:50:59;103013.16;;;7.09;74.95
59337;BME280;45115;52.002;4.686;2023-05-18T02:53:26;103007.19;;;7.01;75.21
59337;BME280;45115;52.002;4.686;2023-05-18T02:55:59;103000.78;;;7.02;75.10
59337;BME280;45115;52.002;4.686;2023-05-18T02:58:32;103008.50;;;6.93;76.07
59337;BME280;45115;52.002;4.686;2023-05-18T03:01:16;103007.75;;;6.89;76.15
59337;BME280;45115;52.002;4.686;2023-05-18T03:03:47;103012.91;;;6.95;76.28
59337;BME280;45115;52.002;4.686;2023-05-18T03:06:15;103005.28;;;7.03;75.11
59337;BME280;45115;52.002;4.686;2023-05-18T03:08:42;103004.47;;;7.01;75.48
59337;BME280;45115;52.002;4.686;2023-05-18T03:11:16;103015.47;;;6.98;75.18
59337;BME280;45115;52.002;4.686;2023-05-18T03:13:42;103015.56;;;6.97;75.37
59337;BME280;45115;52.002;4.686;2023-05-18T03:16:09;103008.63;;;6.90;76.03
59337;BME280;45115;52.002;4.686;2023-05-18T03:18:36;103002.91;;;6.96;75.64
59337;BME280;45115;52.002;4.686;2023-05-18T03:21:02;103011.16;;;6.94;76.01
59337;BME280;45115;52.002;4.686;2023-05-18T03:23:30;103011.22;;;6.93;75.50
59337;BME280;45115;52.002;4.686;2023-05-18T03:25:57;103015.03;;;6.89;76.22
59337;BME280;45115;52.002;4.686;2023-05-18T03:28:27;103006.53;;;6.96;75.53
59337;BME280;45115;52.002;4.686;2023-05-18T03:30:54;103001.13;;;6.95;75.34
59337;BME280;45115;52.002;4.686;2023-05-18T03:33:21;103007.31;;;6.98;74.89
59337;BME280;45115;52.002;4.686;2023-05-18T03:35:48;103010.25;;;6.94;74.85
59337;BME280;45115;52.002;4.686;2023-05-18T03:38:16;103001.06;;;6.96;74.96
59337;BME280;45115;52.002;4.686;2023-05-18T03:40:49;103003.56;;;7.01;75.27
59337;BME280;45115;52.002;4.686;2023-05-18T03:43:16;103000.84;;;7.01;74.91
59337;BME280;45115;52.002;4.686;2023-05-18T03:45:44;103009.25;;;6.96;75.43
59337;BME280;45115;52.002;4.686;2023-05-18T03:48:11;103009.44;;;6.92;75.75
59337;BME280;45115;52.002;4.686;2023-05-18T03:50:38;103014.22;;;6.87;76.05
59337;BME280;45115;52.002;4.686;2023-05-18T03:53:05;103006.94;;;6.87;76.02
59337;BME280;45115;52.002;4.686;2023-05-18T03:55:32;103011.34;;;6.90;75.54
59337;BME280;45115;52.002;4.686;2023-05-18T03:58:00;103021.84;;;6.99;75.48
59337;BME280;45115;52.002;4.686;2023-05-18T04:00:27;103018.16;;;7.00;75.63
59337;BME280;45115;52.002;4.686;2023-05-18T04:02:54;103025.38;;;7.01;74.77
59337;BME280;45115;52.002;4.686;2023-05-18T04:05:23;103022.50;;;7.04;75.61
59337;BME280;45115;52.002;4.686;2023-05-18T04:07:50;103022.72;;;6.99;75.73
59337;BME280;45115;52.002;4.686;2023-05-18T04:10:16;103021.34;;;7.09;75.91
59337;BME280;45115;52.002;4.686;2023-05-18T04:12:45;103020.25;;;7.13;75.31
59337;BME280;45115;52.002;4.686;2023-05-18T04:15:13;103024.56;;;7.19;75.04
59337;BME280;45115;52.002;4.686;2023-05-18T04:17:40;103012.53;;;7.23;74.37
59337;BME280;45115;52.002;4.686;2023-05-18T04:20:10;103025.75;;;7.32;74.48
59337;BME280;45115;52.002;4.686;2023-05-18T04:22:39;103012.25;;;7.29;74.92
59337;BME280;45115;52.002;4.686;2023-05-18T04:25:08;103028.19;;;7.38;74.82
59337;BME280;45115;52.002;4.686;2023-05-18T04:27:36;103012.44;;;7.24;75.18
59337;BME280;45115;52.002;4.686;2023-05-18T04:30:04;103007.81;;;7.26;75.19
59337;BME280;45115;52.002;4.686;2023-05-18T04:32:34;103024.50;;;7.39;74.65
59337;BME280;45115;52.002;4.686;2023-05-18T04:35:02;103017.81;;;7.46;74.92
59337;BME280;45115;52.002;4.686;2023-05-18T04:37:30;103026.66;;;7.51;74.15
59337;BME280;45115;52.002;4.686;2023-05-18T04:39:58;103025.78;;;7.50;74.15
59337;BME280;45115;52.002;4.686;2023-05-18T04:42:29;103027.81;;;7.45;74.04
59337;BME280;45115;52.002;4.686;2023-05-18T04:44:56;103030.28;;;7.51;73.83
59337;BME280;45115;52.002;4.686;2023-05-18T04:47:23;103032.91;;;7.53;74.05
59337;BME280;45115;52.002;4.686;2023-05-18T04:49:51;103033.66;;;7.56;73.30
59337;BME280;45115;52.002;4.686;2023-05-18T04:52:18;103039.19;;;7.55;73.72
59337;BME280;45115;52.002;4.686;2023-05-18T04:54:45;103038.22;;;7.56;74.04
59337;BME280;45115;52.002;4.686;2023-05-18T04:57:12;103042.94;;;7.52;73.85
59337;BME280;45115;52.002;4.686;2023-05-18T04:59:39;103051.66;;;7.60;73.58
59337;BME280;45115;52.002;4.686;2023-05-18T05:02:06;103047.75;;;7.66;72.96
59337;BME280;45115;52.002;4.686;2023-05-18T05:04:33;103039.41;;;7.69;72.96
59337;BME280;45115;52.002;4.686;2023-05-18T05:07:02;103050.03;;;7.75;73.11
59337;BME280;45115;52.002;4.686;2023-05-18T05:09:29;103043.91;;;7.70;72.80
59337;BME280;45115;52.002;4.686;2023-05-18T05:12:01;103040.66;;;7.80;73.20
59337;BME280;45115;52.002;4.686;2023-05-18T05:14:39;103036.69;;;7.87;72.40
59337;BME280;45115;52.002;4.686;2023-05-18T05:17:06;103047.38;;;7.92;72.08
59337;BME280;45115;52.002;4.686;2023-05-18T05:19:32;103042.75;;;7.94;71.94
59337;BME280;45115;52.002;4.686;2023-05-18T05:21:59;103037.72;;;8.04;72.00
59337;BME280;45115;52.002;4.686;2023-05-18T05:24:27;103043.16;;;8.04;71.83
59337;BME280;45115;52.002;4.686;2023-05-18T05:26:54;103047.38;;;8.11;71.78
59337;BME280;45115;52.002;4.686;2023-05-18T05:29:21;103044.03;;;8.23;71.34
59337;BME280;45115;52.002;4.686;2023-05-18T05:31:48;103052.34;;;8.57;70.18
59337;BME280;45115;52.002;4.686;2023-05-18T05:34:15;103052.50;;;8.88;69.04
59337;BME280;45115;52.002;4.686;2023-05-18T05:36:41;103044.81;;;9.61;67.39
59337;BME280;45115;52.002;4.686;2023-05-18T05:39:08;103029.63;;;10.20;63.25
59337;BME280;45115;52.002;4.686;2023-05-18T05:41:38;103037.72;;;10.82;61.98
59337;BME280;45115;52.002;4.686;2023-05-18T05:44:05;103044.13;;;10.96;61.15
59337;BME280;45115;52.002;4.686;2023-05-18T05:46:32;103046.88;;;11.40;58.75
59337;BME280;45115;52.002;4.686;2023-05-18T05:49:00;103041.66;;;11.64;58.69
59337;BME280;45115;52.002;4.686;2023-05-18T05:51:27;103034.00;;;11.55;57.92
59337;BME280;45115;52.002;4.686;2023-05-18T05:53:54;103036.38;;;11.47;58.35
59337;BME280;45115;52.002;4.686;2023-05-18T05:56:20;103035.13;;;11.94;56.81
59337;BME280;45115;52.002;4.686;2023-05-18T05:58:48;103034.59;;;12.02;55.56
59337;BME280;45115;52.002;4.686;2023-05-18T06:01:16;103040.03;;;12.57;54.62
59337;BME280;45115;52.002;4.686;2023-05-18T06:03:42;103035.66;;;13.94;51.63
59337;BME280;45115;52.002;4.686;2023-05-18T06:06:11;103029.41;;;14.28;50.21
59337;BME280;45115;52.002;4.686;2023-05-18T06:08:38;103034.91;;;14.99;49.92
59337;BME280;45115;52.002;4.686;2023-05-18T06:11:05;103031.59;;;13.87;50.11
59337;BME280;45115;52.002;4.686;2023-05-18T06:13:32;103039.00;;;13.23;51.51
59337;BME280;45115;52.002;4.686;2023-05-18T06:16:16;103048.16;;;13.62;51.42
59337;BME280;45115;52.002;4.686;2023-05-18T06:18:43;103046.56;;;13.95;49.92
59337;BME280;45115;52.002;4.686;2023-05-18T06:21:10;103052.44;;;13.28;50.17
59337;BME280;45115;52.002;4.686;2023-05-18T06:23:37;103053.06;;;12.26;53.29
59337;BME280;45115;52.002;4.686;2023-05-18T06:26:39;103058.22;;;11.48;56.02
59337;BME280;45115;52.002;4.686;2023-05-18T06:29:15;103063.50;;;11.37;57.93
59337;BME280;45115;52.002;4.686;2023-05-18T06:32:04;103076.41;;;11.79;57.18
59337;BME280;45115;52.002;4.686;2023-05-18T06:34:37;103062.69;;;12.60;55.25
59337;BME280;45115;52.002;4.686;2023-05-18T06:37:04;103067.72;;;12.80;53.13
59337;BME280;45115;52.002;4.686;2023-05-18T06:39:31;103069.00;;;13.01;53.44
59337;BME280;45115;52.002;4.686;2023-05-18T06:41:58;103068.63;;;13.83;50.62
59337;BME280;45115;52.002;4.686;2023-05-18T06:44:30;103062.81;;;14.23;49.30
59337;BME280;45115;52.002;4.686;2023-05-18T06:47:05;103069.03;;;14.02;49.09
59337;BME280;45115;52.002;4.686;2023-05-18T06:49:32;103069.19;;;13.37;50.16
59337;BME280;45115;52.002;4.686;2023-05-18T06:51:59;103072.84;;;12.46;52.58
59337;BME280;45115;52.002;4.686;2023-05-18T06:54:26;103073.47;;;12.63;53.24
59337;BME280;45115;52.002;4.686;2023-05-18T06:56:54;103078.63;;;13.21;50.85
59337;BME280;45115;52.002;4.686;2023-05-18T06:59:20;103067.72;;;13.95;48.88
59337;BME280;45115;52.002;4.686;2023-05-18T07:01:47;103064.28;;;14.52;47.63
59337;BME280;45115;52.002;4.686;2023-05-18T07:04:16;103068.75;;;14.66;46.61
59337;BME280;45115;52.002;4.686;2023-05-18T07:06:43;103070.50;;;14.43;46.96
59337;BME280;45115;52.002;4.686;2023-05-18T07:09:10;103075.94;;;13.71;47.45
59337;BME280;45115;52.002;4.686;2023-05-18T07:11:37;103073.28;;;13.57;49.51
59337;BME280;45115;52.002;4.686;2023-05-18T07:14:04;103072.78;;;12.86;50.70
59337;BME280;45115;52.002;4.686;2023-05-18T07:16:31;103081.94;;;12.60;52.13
59337;BME280;45115;52.002;4.686;2023-05-18T07:18:57;103071.41;;;12.40;52.00
59337;BME280;45115;52.002;4.686;2023-05-18T07:21:26;103068.31;;;13.37;51.16
59337;BME280;45115;52.002;4.686;2023-05-18T07:23:52;103067.50;;;13.98;48.97
59337;BME280;45115;52.002;4.686;2023-05-18T07:26:19;103073.78;;;14.00;48.52
59337;BME280;45115;52.002;4.686;2023-05-18T07:28:46;103079.81;;;14.17;48.24
59337;BME280;45115;52.002;4.686;2023-05-18T07:31:13;103077.53;;;14.11;48.96
59337;BME280;45115;52.002;4.686;2023-05-18T07:33:40;103081.75;;;13.67;49.29
59337;BME280;45115;52.002;4.686;2023-05-18T07:36:07;103086.69;;;12.97;50.40
59337;BME280;45115;52.002;4.686;2023-05-18T07:38:35;103080.09;;;12.61;51.69
59337;BME280;45115;52.002;4.686;2023-05-18T07:41:01;103079.81;;;12.51;52.35
59337;BME280;45115;52.002;4.686;2023-05-18T07:43:28;103089.78;;;12.66;51.70
59337;BME280;45115;52.002;4.686;2023-05-18T07:45:55;103093.88;;;12.73;51.71
59337;BME280;45115;52.002;4.686;2023-05-18T07:48:22;103099.38;;;12.73;50.68
59337;BME280;45115;52.002;4.686;2023-05-18T07:50:48;103103.16;;;12.85;51.59
59337;BME280;45115;52.002;4.686;2023-05-18T07:53:15;103098.19;;;13.04;50.69
59337;BME280;45115;52.002;4.686;2023-05-18T07:55:44;103102.66;;;13.44;50.61
59337;BME280;45115;52.002;4.686;2023-05-18T07:58:12;103095.03;;;13.10;50.21
59337;BME280;45115;52.002;4.686;2023-05-18T08:00:38;103105.00;;;13.63;49.33
59337;BME280;45115;52.002;4.686;2023-05-18T08:03:05;103097.94;;;13.59;49.61
59337;BME280;45115;52.002;4.686;2023-05-18T08:05:32;103093.41;;;13.70;49.16
59337;BME280;45115;52.002;4.686;2023-05-18T08:07:59;103088.91;;;13.69;49.02
59337;BME280;45115;52.002;4.686;2023-05-18T08:10:27;103099.22;;;13.28;49.06
59337;BME280;45115;52.002;4.686;2023-05-18T08:12:55;103097.28;;;13.03;50.24
59337;BME280;45115;52.002;4.686;2023-05-18T08:15:21;103101.94;;;13.03;50.78
59337;BME280;45115;52.002;4.686;2023-05-18T08:17:48;103090.75;;;12.65;50.57
59337;BME280;45115;52.002;4.686;2023-05-18T08:20:15;103100.34;;;12.72;51.99
59337;BME280;45115;52.002;4.686;2023-05-18T08:22:41;103099.25;;;13.01;50.22
59337;BME280;45115;52.002;4.686;2023-05-18T08:25:08;103099.34;;;13.39;50.66
59337;BME280;45115;52.002;4.686;2023-05-18T08:27:35;103091.97;;;13.65;48.58
59337;BME280;45115;52.002;4.686;2023-05-18T08:30:04;103088.72;;;14.21;48.04
59337;BME280;45115;52.002;4.686;2023-05-18T08:32:31;103087.41;;;14.14;46.81
59337;BME280;45115;52.002;4.686;2023-05-18T08:35:02;103088.41;;;14.38;47.35
59337;BME280;45115;52.002;4.686;2023-05-18T08:37:28;103088.94;;;14.67;46.31
59337;BME280;45115;52.002;4.686;2023-05-18T08:39:55;103097.75;;;14.95;45.69
59337;BME280;45115;52.002;4.686;2023-05-18T08:42:28;103087.44;;;15.21;44.53
59337;BME280;45115;52.002;4.686;2023-05-18T08:45:09;103088.91;;;14.79;45.23
59337;BME280;45115;52.002;4.686;2023-05-18T08:47:37;103082.16;;;15.18;44.50
59337;BME280;45115;52.002;4.686;2023-05-18T08:50:05;103076.44;;;14.97;44.89
59337;BME280;45115;52.002;4.686;2023-05-18T08:52:35;103073.66;;;15.89;43.66
59337;BME280;45115;52.002;4.686;2023-05-18T08:55:04;103074.16;;;16.16;41.14
59337;BME280;45115;52.002;4.686;2023-05-18T08:57:33;103073.41;;;16.25;41.96
59337;BME280;45115;52.002;4.686;2023-05-18T09:00:02;103083.97;;;15.06;43.41
59337;BME280;45115;52.002;4.686;2023-05-18T09:02:32;103076.59;;;14.23;45.65
59337;BME280;45115;52.002;4.686;2023-05-18T09:04:59;103084.84;;;14.72;44.94
59337;BME280;45115;52.002;4.686;2023-05-18T09:07:27;103072.66;;;14.98;44.70
59337;BME280;45115;52.002;4.686;2023-05-18T09:09:55;103078.75;;;14.80;45.47
59337;BME280;45115;52.002;4.686;2023-05-18T09:12:23;103070.59;;;15.13;44.60
59337;BME280;45115;52.002;4.686;2023-05-18T09:14:51;103073.63;;;15.21;44.86
59337;BME280;45115;52.002;4.686;2023-05-18T09:17:18;103067.41;;;14.72;45.75
59337;BME280;45115;52.002;4.686;2023-05-18T09:19:48;103068.19;;;14.50;45.74
59337;BME280;45115;52.002;4.686;2023-05-18T09:22:15;103061.97;;;14.10;46.57
59337;BME280;45115;52.002;4.686;2023-05-18T09:24:41;103056.97;;;14.28;46.33
59337;BME280;45115;52.002;4.686;2023-05-18T09:27:08;103031.00;;;14.07;46.83
59337;BME280;45115;52.002;4.686;2023-05-18T09:29:35;103053.91;;;14.20;46.36
59337;BME280;45115;52.002;4.686;2023-05-18T09:32:02;103061.81;;;14.37;46.12
59337;BME280;45115;52.002;4.686;2023-05-18T09:34:38;103044.34;;;14.73;44.89
59337;BME280;45115;52.002;4.686;2023-05-18T09:37:06;103046.28;;;14.83;45.23
59337;BME280;45115;52.002;4.686;2023-05-18T09:39:34;103041.22;;;14.77;46.29
59337;BME280;45115;52.002;4.686;2023-05-18T09:42:01;103047.31;;;14.70;44.44
59337;BME280;45115;52.002;4.686;2023-05-18T09:44:30;103047.84;;;14.51;47.91
59337;BME280;45115;52.002;4.686;2023-05-18T09:46:57;103052.03;;;14.57;45.73
59337;BME280;45115;52.002;4.686;2023-05-18T09:49:23;103038.16;;;15.38;45.64
59337;BME280;45115;52.002;4.686;2023-05-18T09:51:50;103053.19;;;14.65;44.93
59337;BME280;45115;52.002;4.686;2023-05-18T09:54:19;103048.16;;;14.83;44.57
59337;BME280;45115;52.002;4.686;2023-05-18T09:56:45;103038.16;;;14.45;45.95
59337;BME280;45115;52.002;4.686;2023-05-18T09:59:14;103039.44;;;15.00;46.80
59337;BME280;45115;52.002;4.686;2023-05-18T10:01:54;103044.69;;;14.44;45.21
59337;BME280;45115;52.002;4.686;2023-05-18T10:04:21;103043.91;;;14.90;45.47
59337;BME280;45115;52.002;4.686;2023-05-18T10:06:48;103038.72;;;15.54;43.90
59337;BME280;45115;52.002;4.686;2023-05-18T10:09:16;103036.59;;;15.58;45.02
59337;BME280;45115;52.002;4.686;2023-05-18T10:11:44;103029.38;;;16.33;41.98
59337;BME280;45115;52.002;4.686;2023-05-18T10:14:10;103034.63;;;15.25;43.30
59337;BME280;45115;52.002;4.686;2023-05-18T10:16:37;103036.25;;;15.28;43.83
59337;BME280;45115;52.002;4.686;2023-05-18T10:19:07;103031.19;;;15.68;43.50
59337;BME280;45115;52.002;4.686;2023-05-18T10:21:36;103038.38;;;15.24;43.45
59337;BME280;45115;52.002;4.686;2023-05-18T10:24:04;103049.75;;;15.09;44.16
59337;BME280;45115;52.002;4.686;2023-05-18T10:26:34;103017.66;;;15.19;43.80
59337;BME280;45115;52.002;4.686;2023-05-18T10:29:05;103024.94;;;15.66;43.78
59337;BME280;45115;52.002;4.686;2023-05-18T10:31:34;103017.13;;;15.59;43.41
59337;BME280;45115;52.002;4.686;2023-05-18T10:34:02;103020.06;;;15.34;43.07
59337;BME280;45115;52.002;4.686;2023-05-18T10:36:32;103027.91;;;15.40;43.50
59337;BME280;45115;52.002;4.686;2023-05-18T10:39:01;103030.13;;;15.35;43.75
59337;BME280;45115;52.002;4.686;2023-05-18T10:41:29;103021.13;;;15.44;44.22
59337;BME280;45115;52.002;4.686;2023-05-18T10:43:57;103010.97;;;15.89;43.97
59337;BME280;45115;52.002;4.686;2023-05-18T10:46:29;103012.59;;;15.81;43.12
59337;BME280;45115;52.002;4.686;2023-05-18T10:48:57;103004.25;;;16.25;42.87
59337;BME280;45115;52.002;4.686;2023-05-18T10:51:28;103001.97;;;16.41;41.76
59337;BME280;45115;52.002;4.686;2023-05-18T10:54:09;103000.19;;;16.51;41.23
59337;BME280;45115;52.002;4.686;2023-05-18T10:56:36;102999.72;;;16.24;41.72
59337;BME280;45115;52.002;4.686;2023-05-18T10:59:04;103008.63;;;15.28;43.51
59337;BME280;45115;52.002;4.686;2023-05-18T11:01:33;102997.91;;;15.58;44.61
59337;BME280;45115;52.002;4.686;2023-05-18T11:04:00;103009.78;;;15.25;44.36
59337;BME280;45115;52.002;4.686;2023-05-18T11:06:27;103007.09;;;15.13;44.75
59337;BME280;45115;52.002;4.686;2023-05-18T11:08:54;103006.69;;;15.41;43.91
59337;BME280;45115;52.002;4.686;2023-05-18T11:11:22;103016.75;;;14.73;45.37
59337;BME280;45115;52.002;4.686;2023-05-18T11:13:50;103005.44;;;15.67;44.44
59337;BME280;45115;52.002;4.686;2023-05-18T11:16:17;102996.03;;;15.81;44.24
59337;BME280;45115;52.002;4.686;2023-05-18T11:18:47;102989.13;;;16.40;43.06
59337;BME280;45115;52.002;4.686;2023-05-18T11:21:50;102992.19;;;16.68;40.78
59337;BME280;45115;52.002;4.686;2023-05-18T11:24:18;103003.69;;;15.88;41.48
59337;BME280;45115;52.002;4.686;2023-05-18T11:26:47;102991.97;;;16.18;44.41
59337;BME280;45115;52.002;4.686;2023-05-18T11:29:22;102992.50;;;16.43;42.10
59337;BME280;45115;52.002;4.686;2023-05-18T11:31:50;102993.63;;;16.52;41.81
59337;BME280;45115;52.002;4.686;2023-05-18T11:34:44;102979.59;;;17.58;39.52
59337;BME280;45115;52.002;4.686;2023-05-18T11:37:13;102979.31;;;17.20;41.18
59337;BME280;45115;52.002;4.686;2023-05-18T11:39:40;102980.59;;;17.57;39.98
59337;BME280;45115;52.002;4.686;2023-05-18T11:42:08;102974.19;;;17.96;40.44
59337;BME280;45115;52.002;4.686;2023-05-18T11:44:36;102971.81;;;16.90;41.80
59337;BME280;45115;52.002;4.686;2023-05-18T11:47:07;102971.97;;;16.14;43.24
59337;BME280;45115;52.002;4.686;2023-05-18T11:49:45;102970.41;;;16.32;42.64
59337;BME280;45115;52.002;4.686;2023-05-18T11:52:15;102968.03;;;16.28;41.84
59337;BME280;45115;52.002;4.686;2023-05-18T11:54:44;102960.50;;;16.19;42.94
59337;BME280;45115;52.002;4.686;2023-05-18T11:57:13;102962.63;;;15.73;42.85
59337;BME280;45115;52.002;4.686;2023-05-18T11:59:41;102967.63;;;15.79;43.24
59337;BME280;45115;52.002;4.686;2023-05-18T12:02:09;102964.88;;;15.45;43.11
59337;BME280;45115;52.002;4.686;2023-05-18T12:04:44;102958.38;;;16.11;44.43
59337;BME280;45115;52.002;4.686;2023-05-18T12:07:11;102962.44;;;16.07;43.31
59337;BME280;45115;52.002;4.686;2023-05-18T12:09:39;102950.19;;;16.32;43.02
59337;BME280;45115;52.002;4.686;2023-05-18T12:12:07;102947.91;;;15.83;43.34
59337;BME280;45115;52.002;4.686;2023-05-18T12:14:35;102942.13;;;15.86;42.78
59337;BME280;45115;52.002;4.686;2023-05-18T12:17:03;102942.66;;;15.58;44.84
59337;BME280;45115;52.002;4.686;2023-05-18T12:19:36;102960.44;;;15.21;44.99
59337;BME280;45115;52.002;4.686;2023-05-18T12:22:04;102941.78;;;15.69;44.69
59337;BME280;45115;52.002;4.686;2023-05-18T12:24:31;102953.44;;;15.50;44.30
59337;BME280;45115;52.002;4.686;2023-05-18T12:26:58;102933.97;;;15.85;46.10
59337;BME280;45115;52.002;4.686;2023-05-18T12:29:28;102943.47;;;16.03;43.80
59337;BME280;45115;52.002;4.686;2023-05-18T12:31:55;102945.78;;;15.64;44.12
59337;BME280;45115;52.002;4.686;2023-05-18T12:34:27;102948.00;;;15.93;43.61
59337;BME280;45115;52.002;4.686;2023-05-18T12:36:54;102943.31;;;16.04;44.88
59337;BME280;45115;52.002;4.686;2023-05-18T12:39:23;102933.97;;;16.27;43.11
59337;BME280;45115;52.002;4.686;2023-05-18T12:41:50;102940.50;;;16.37;44.34
59337;BME280;45115;52.002;4.686;2023-05-18T12:44:17;102938.25;;;16.84;42.24
59337;BME280;45115;52.002;4.686;2023-05-18T12:46:44;102933.19;;;17.09;43.72
59337;BME280;45115;52.002;4.686;2023-05-18T12:49:10;102917.00;;;16.84;41.77
59337;BME280;45115;52.002;4.686;2023-05-18T12:51:38;102928.38;;;17.11;41.46
59337;BME280;45115;52.002;4.686;2023-05-18T12:54:05;102923.06;;;16.78;40.93
59337;BME280;45115;52.002;4.686;2023-05-18T12:56:53;102936.06;;;16.78;41.88
59337;BME280;45115;52.002;4.686;2023-05-18T12:59:24;102931.56;;;17.07;41.51
59337;BME280;45115;52.002;4.686;2023-05-18T13:01:51;102938.81;;;16.98;40.98
59337;BME280;45115;52.002;4.686;2023-05-18T13:04:18;102919.50;;;16.66;41.45
59337;BME280;45115;52.002;4.686;2023-05-18T13:06:45;102928.25;;;16.51;42.09
59337;BME280;45115;52.002;4.686;2023-05-18T13:09:13;102934.38;;;16.86;41.11
59337;BME280;45115;52.002;4.686;2023-05-18T13:11:40;102913.28;;;16.95;41.91
59337;BME280;45115;52.002;4.686;2023-05-18T13:14:12;102921.22;;;17.29;40.32
59337;BME280;45115;52.002;4.686;2023-05-18T13:16:44;102917.41;;;17.00;40.61
59337;BME280;45115;52.002;4.686;2023-05-18T13:19:15;102913.91;;;16.98;40.61
59337;BME280;45115;52.002;4.686;2023-05-18T13:21:43;102912.88;;;16.79;40.68
59337;BME280;45115;52.002;4.686;2023-05-18T13:24:09;102901.44;;;17.13;42.52
59337;BME280;45115;52.002;4.686;2023-05-18T13:26:36;102912.03;;;17.59;42.67
59337;BME280;45115;52.002;4.686;2023-05-18T13:29:03;102904.66;;;17.78;40.43
59337;BME280;45115;52.002;4.686;2023-05-18T13:31:32;102903.41;;;17.52;41.28
59337;BME280;45115;52.002;4.686;2023-05-18T13:33:59;102910.50;;;17.45;42.84
59337;BME280;45115;52.002;4.686;2023-05-18T13:36:26;102904.84;;;17.47;40.13
59337;BME280;45115;52.002;4.686;2023-05-18T13:38:53;102899.41;;;17.15;41.62
59337;BME280;45115;52.002;4.686;2023-05-18T13:41:20;102900.19;;;16.55;41.25
59337;BME280;45115;52.002;4.686;2023-05-18T13:43:47;102891.25;;;16.52;41.58